<?xml version='1.0' encoding='UTF-8'?><gpx version="1.1" creator="JPX - https://github.com/jenetics/jpx" xmlns="http://www.topografix.com/GPX/1/1"><trk><trkseg><trkpt lat="44.814547665783" lon="7.248474866246251"><ele>474.0</ele><time>2026-04-26T13:18:08Z</time></trkpt><trkpt lat="44.81452455653259" lon="7.248603531232057"><ele>474.0</ele><time>2026-04-26T13:18:11Z</time></trkpt><trkpt lat="44.81450961069967" lon="7.248709614278464"><ele>474.0</ele><time>2026-04-26T13:18:14Z</time></trkpt><trkpt lat="44.814471205892076" lon="7.248807816195349"><ele>474.0</ele><time>2026-04-26T13:18:16Z</time></trkpt><trkpt lat="44.814483249417506" lon="7.2489209843388895"><ele>474.0</ele><time>2026-04-26T13:18:18Z</time></trkpt><trkpt lat="44.81446732056175" lon="7.249042344287321"><ele>474.0</ele><time>2026-04-26T13:18:20Z</time></trkpt><trkpt lat="44.81444383617269" lon="7.249150096943521"><ele>474.0</ele><time>2026-04-26T13:18:22Z</time></trkpt><trkpt lat="44.81443146822719" lon="7.249272788105367"><ele>474.0</ele><time>2026-04-26T13:18:24Z</time></trkpt><trkpt lat="44.81442331356614" lon="7.249399511026565"><ele>474.0</ele><time>2026-04-26T13:18:26Z</time></trkpt><trkpt lat="44.81441845192326" lon="7.249531090879849"><ele>474.0</ele><time>2026-04-26T13:18:28Z</time></trkpt><trkpt lat="44.81440957830659" lon="7.249646116869277"><ele>474.0</ele><time>2026-04-26T13:18:30Z</time></trkpt><trkpt lat="44.814412653509706" lon="7.249749076571352"><ele>474.0</ele><time>2026-04-26T13:18:32Z</time></trkpt><trkpt lat="44.81440197912618" lon="7.249860325431584"><ele>473.8333333333333</ele><time>2026-04-26T13:18:34Z</time></trkpt><trkpt lat="44.81437128852941" lon="7.249974925093188"><ele>473.66666666666663</ele><time>2026-04-26T13:18:36Z</time></trkpt><trkpt lat="44.81435731935074" lon="7.250094958353778"><ele>473.5</ele><time>2026-04-26T13:18:38Z</time></trkpt><trkpt lat="44.81440172993217" lon="7.250174822592956"><ele>473.3333333333333</ele><time>2026-04-26T13:18:40Z</time></trkpt><trkpt lat="44.81447559599064" lon="7.250211940052374"><ele>473.16666666666663</ele><time>2026-04-26T13:18:42Z</time></trkpt><trkpt lat="44.8145600138696" lon="7.250237160537893"><ele>473.0</ele><time>2026-04-26T13:18:44Z</time></trkpt><trkpt lat="44.81464983111322" lon="7.250254111475501"><ele>472.99999999999994</ele><time>2026-04-26T13:18:46Z</time></trkpt><trkpt lat="44.814734504269865" lon="7.250271712012137"><ele>473.0</ele><time>2026-04-26T13:18:48Z</time></trkpt><trkpt lat="44.81482210497707" lon="7.250284049460069"><ele>473.0</ele><time>2026-04-26T13:18:50Z</time></trkpt><trkpt lat="44.81490961337557" lon="7.250299869975611"><ele>473.0</ele><time>2026-04-26T13:18:51.999Z</time></trkpt><trkpt lat="44.815001342706026" lon="7.250314706346913"><ele>472.99999999999994</ele><time>2026-04-26T13:18:53.999Z</time></trkpt><trkpt lat="44.815091126764834" lon="7.250332502409687"><ele>473.0</ele><time>2026-04-26T13:18:55.999Z</time></trkpt><trkpt lat="44.81518266194033" lon="7.250354476922679"><ele>473.0</ele><time>2026-04-26T13:18:57.999Z</time></trkpt><trkpt lat="44.815272184818035" lon="7.2503703325658195"><ele>472.99999999999994</ele><time>2026-04-26T13:18:59.999Z</time></trkpt><trkpt lat="44.81536306493784" lon="7.25039363756228"><ele>472.99999999999994</ele><time>2026-04-26T13:19:01.999Z</time></trkpt><trkpt lat="44.81545516919841" lon="7.250412993393586"><ele>473.0</ele><time>2026-04-26T13:19:03.999Z</time></trkpt><trkpt lat="44.81554514335018" lon="7.250415513805913"><ele>473.0</ele><time>2026-04-26T13:19:05.999Z</time></trkpt><trkpt lat="44.81563259440988" lon="7.250425938931447"><ele>472.99999999999994</ele><time>2026-04-26T13:19:07.999Z</time></trkpt><trkpt lat="44.81570564519303" lon="7.250467775762268"><ele>473.0</ele><time>2026-04-26T13:19:09.999Z</time></trkpt><trkpt lat="44.81574995754302" lon="7.2505544243765065"><ele>473.0</ele><time>2026-04-26T13:19:11.999Z</time></trkpt><trkpt lat="44.81575674749543" lon="7.25067566585977"><ele>473.0</ele><time>2026-04-26T13:19:13.999Z</time></trkpt><trkpt lat="44.81575999798045" lon="7.250805400181634"><ele>472.99999999999994</ele><time>2026-04-26T13:19:15.999Z</time></trkpt><trkpt lat="44.81576403582116" lon="7.25094922814408"><ele>473.0</ele><time>2026-04-26T13:19:17.999Z</time></trkpt><trkpt lat="44.81576397675087" lon="7.251095618560198"><ele>472.5</ele><time>2026-04-26T13:19:19.999Z</time></trkpt><trkpt lat="44.815766825162335" lon="7.251248719615198"><ele>472.0</ele><time>2026-04-26T13:19:21.999Z</time></trkpt><trkpt lat="44.81576211232353" lon="7.251409588467628"><ele>471.5</ele><time>2026-04-26T13:19:23.999Z</time></trkpt><trkpt lat="44.81576690155797" lon="7.251569961933174"><ele>471.0</ele><time>2026-04-26T13:19:25.999Z</time></trkpt><trkpt lat="44.81577115365456" lon="7.251734973226298"><ele>470.75</ele><time>2026-04-26T13:19:28Z</time></trkpt><trkpt lat="44.81577144215942" lon="7.251902074627803"><ele>470.5</ele><time>2026-04-26T13:19:30Z</time></trkpt><trkpt lat="44.81577171774643" lon="7.252071318835806"><ele>470.25</ele><time>2026-04-26T13:19:32Z</time></trkpt><trkpt lat="44.81577447039292" lon="7.252243513055904"><ele>470.0</ele><time>2026-04-26T13:19:34Z</time></trkpt><trkpt lat="44.815773252748066" lon="7.252409522380556"><ele>470.0</ele><time>2026-04-26T13:19:36Z</time></trkpt><trkpt lat="44.815769804015616" lon="7.252586155007154"><ele>470.0</ele><time>2026-04-26T13:19:38Z</time></trkpt><trkpt lat="44.81577489275213" lon="7.252759735933064"><ele>470.0</ele><time>2026-04-26T13:19:40Z</time></trkpt><trkpt lat="44.815773113134746" lon="7.25293119267722"><ele>470.0</ele><time>2026-04-26T13:19:42Z</time></trkpt><trkpt lat="44.81577281135195" lon="7.253105502187337"><ele>470.0</ele><time>2026-04-26T13:19:44Z</time></trkpt><trkpt lat="44.8157743016277" lon="7.253270834096841"><ele>470.0</ele><time>2026-04-26T13:19:46Z</time></trkpt><trkpt lat="44.8157760184559" lon="7.25344289002097"><ele>470.0</ele><time>2026-04-26T13:19:48Z</time></trkpt><trkpt lat="44.81577464270188" lon="7.25361423027245"><ele>470.0</ele><time>2026-04-26T13:19:50Z</time></trkpt><trkpt lat="44.81577341906881" lon="7.253787019377013"><ele>469.25</ele><time>2026-04-26T13:19:52Z</time></trkpt><trkpt lat="44.81577772795489" lon="7.253959936588674"><ele>468.5</ele><time>2026-04-26T13:19:54Z</time></trkpt><trkpt lat="44.81577625865088" lon="7.254130018185353"><ele>467.75</ele><time>2026-04-26T13:19:56Z</time></trkpt><trkpt lat="44.81577417453521" lon="7.25430046007734"><ele>467.0</ele><time>2026-04-26T13:19:58Z</time></trkpt><trkpt lat="44.81578070250914" lon="7.254465153368902"><ele>467.0</ele><time>2026-04-26T13:20:00Z</time></trkpt><trkpt lat="44.81577832962372" lon="7.254633985834076"><ele>467.00000000000006</ele><time>2026-04-26T13:20:02Z</time></trkpt><trkpt lat="44.81577550413997" lon="7.254799805513036"><ele>467.00000000000006</ele><time>2026-04-26T13:20:04Z</time></trkpt><trkpt lat="44.815781681714235" lon="7.254969183806143"><ele>467.0</ele><time>2026-04-26T13:20:06Z</time></trkpt><trkpt lat="44.81576932909821" lon="7.255057222825572"><ele>467.0</ele><time>2026-04-26T13:20:07Z</time></trkpt><trkpt lat="44.815770514690755" lon="7.25523072666109"><ele>466.75</ele><time>2026-04-26T13:20:09Z</time></trkpt><trkpt lat="44.81577093053522" lon="7.255408324937378"><ele>466.5</ele><time>2026-04-26T13:20:11Z</time></trkpt><trkpt lat="44.81577137497149" lon="7.25558225829777"><ele>466.25</ele><time>2026-04-26T13:20:13Z</time></trkpt><trkpt lat="44.81577181384823" lon="7.255754016336518"><ele>466.0</ele><time>2026-04-26T13:20:15Z</time></trkpt><trkpt lat="44.81577224197907" lon="7.255921568556614"><ele>465.75</ele><time>2026-04-26T13:20:17Z</time></trkpt><trkpt lat="44.81578600758933" lon="7.25608362661151"><ele>465.5</ele><time>2026-04-26T13:20:19Z</time></trkpt><trkpt lat="44.815784465500805" lon="7.256250549676466"><ele>465.25</ele><time>2026-04-26T13:20:21Z</time></trkpt><trkpt lat="44.815782758564175" lon="7.256411040455723"><ele>465.0</ele><time>2026-04-26T13:20:23Z</time></trkpt><trkpt lat="44.81578568310798" lon="7.256554617382148"><ele>465.0</ele><time>2026-04-26T13:20:25Z</time></trkpt><trkpt lat="44.815775924834945" lon="7.256653632068398"><ele>465.0</ele><time>2026-04-26T13:20:27Z</time></trkpt><trkpt lat="44.81586455539167" lon="7.256714084501546"><ele>465.0</ele><time>2026-04-26T13:20:29Z</time></trkpt><trkpt lat="44.815931148546625" lon="7.256721995721849"><ele>465.0</ele><time>2026-04-26T13:20:32Z</time></trkpt><trkpt lat="44.81600301659576" lon="7.256714256903888"><ele>465.0</ele><time>2026-04-26T13:20:34Z</time></trkpt><trkpt lat="44.81608460817147" lon="7.256749790058627"><ele>465.0</ele><time>2026-04-26T13:20:36Z</time></trkpt><trkpt lat="44.81617408504708" lon="7.256748498082923"><ele>465.0</ele><time>2026-04-26T13:20:38Z</time></trkpt><trkpt lat="44.81626360059048" lon="7.256758175312689"><ele>465.0</ele><time>2026-04-26T13:20:40Z</time></trkpt><trkpt lat="44.81634786497656" lon="7.256778809316419"><ele>465.0</ele><time>2026-04-26T13:20:42Z</time></trkpt><trkpt lat="44.81642031260108" lon="7.256794242475927"><ele>465.0</ele><time>2026-04-26T13:20:44Z</time></trkpt><trkpt lat="44.816502461532444" lon="7.256807457610705"><ele>465.0</ele><time>2026-04-26T13:20:46Z</time></trkpt><trkpt lat="44.81658638645492" lon="7.256807096053897"><ele>465.0</ele><time>2026-04-26T13:20:48Z</time></trkpt><trkpt lat="44.81667246830952" lon="7.256814225786458"><ele>465.0</ele><time>2026-04-26T13:20:50Z</time></trkpt><trkpt lat="44.816761696856226" lon="7.25682896102454"><ele>465.0</ele><time>2026-04-26T13:20:52Z</time></trkpt><trkpt lat="44.816850339142235" lon="7.256837347766979"><ele>465.0</ele><time>2026-04-26T13:20:54Z</time></trkpt><trkpt lat="44.81694144283157" lon="7.256856419366915"><ele>465.0</ele><time>2026-04-26T13:20:56Z</time></trkpt><trkpt lat="44.81702833601332" lon="7.256871331828193"><ele>465.0</ele><time>2026-04-26T13:20:57.999Z</time></trkpt><trkpt lat="44.817116968641805" lon="7.256871461205474"><ele>465.0</ele><time>2026-04-26T13:20:59.999Z</time></trkpt><trkpt lat="44.817200559730026" lon="7.256861599766187"><ele>465.6666666666667</ele><time>2026-04-26T13:21:01.999Z</time></trkpt><trkpt lat="44.8172855268966" lon="7.256846199277887"><ele>466.33333333333337</ele><time>2026-04-26T13:21:03.999Z</time></trkpt><trkpt lat="44.817368891499285" lon="7.256831458872689"><ele>467.0</ele><time>2026-04-26T13:21:05.999Z</time></trkpt><trkpt lat="44.81744961193608" lon="7.256811412368576"><ele>467.6666666666667</ele><time>2026-04-26T13:21:07.999Z</time></trkpt><trkpt lat="44.817529931041" lon="7.256779016779788"><ele>468.33333333333337</ele><time>2026-04-26T13:21:09.999Z</time></trkpt><trkpt lat="44.817609124927436" lon="7.256748226060133"><ele>469.0</ele><time>2026-04-26T13:21:11.999Z</time></trkpt><trkpt lat="44.81768845789122" lon="7.256737954058536"><ele>469.1666666666667</ele><time>2026-04-26T13:21:13.999Z</time></trkpt><trkpt lat="44.817765221153884" lon="7.256731494941815"><ele>469.33333333333337</ele><time>2026-04-26T13:21:15.999Z</time></trkpt><trkpt lat="44.81784627262015" lon="7.256714749948736"><ele>469.5</ele><time>2026-04-26T13:21:17.999Z</time></trkpt><trkpt lat="44.81792950444517" lon="7.256712292799687"><ele>469.66666666666663</ele><time>2026-04-26T13:21:19.999Z</time></trkpt><trkpt lat="44.8180125723761" lon="7.256711004196359"><ele>469.8333333333333</ele><time>2026-04-26T13:21:21.999Z</time></trkpt><trkpt lat="44.818093297383456" lon="7.256714999608842"><ele>470.0</ele><time>2026-04-26T13:21:23.999Z</time></trkpt><trkpt lat="44.81816881757719" lon="7.256712978175745"><ele>469.99999999999994</ele><time>2026-04-26T13:21:25.999Z</time></trkpt><trkpt lat="44.81824160691355" lon="7.256702572638413"><ele>470.0</ele><time>2026-04-26T13:21:27.999Z</time></trkpt><trkpt lat="44.81832164672829" lon="7.256691180071384"><ele>470.0</ele><time>2026-04-26T13:21:29.999Z</time></trkpt><trkpt lat="44.81839967582024" lon="7.256677991260598"><ele>470.0</ele><time>2026-04-26T13:21:31.999Z</time></trkpt><trkpt lat="44.81847998143294" lon="7.256665266047367"><ele>469.99999999999994</ele><time>2026-04-26T13:21:33.999Z</time></trkpt><trkpt lat="44.818554024174155" lon="7.256645566805143"><ele>470.0</ele><time>2026-04-26T13:21:35.999Z</time></trkpt><trkpt lat="44.818632494386144" lon="7.256648024092705"><ele>470.8</ele><time>2026-04-26T13:21:40Z</time></trkpt><trkpt lat="44.818704226177864" lon="7.25670069763162"><ele>471.6</ele><time>2026-04-26T13:21:44Z</time></trkpt><trkpt lat="44.81869337687261" lon="7.256849302580459"><ele>472.4</ele><time>2026-04-26T13:21:46Z</time></trkpt><trkpt lat="44.8186789583875" lon="7.256971053651521"><ele>473.2</ele><time>2026-04-26T13:21:48Z</time></trkpt><trkpt lat="44.81866423231635" lon="7.257098884510665"><ele>474.0</ele><time>2026-04-26T13:21:50Z</time></trkpt><trkpt lat="44.81864734108918" lon="7.25723430392688"><ele>474.0</ele><time>2026-04-26T13:21:52Z</time></trkpt><trkpt lat="44.818630420488184" lon="7.257379766249397"><ele>474.0</ele><time>2026-04-26T13:21:54Z</time></trkpt><trkpt lat="44.818618988206126" lon="7.2575351286159275"><ele>474.0</ele><time>2026-04-26T13:21:56Z</time></trkpt><trkpt lat="44.818588393944346" lon="7.257694378737785"><ele>474.0</ele><time>2026-04-26T13:21:58Z</time></trkpt><trkpt lat="44.81857325138788" lon="7.25778236540486"><ele>474.0</ele><time>2026-04-26T13:21:59Z</time></trkpt><trkpt lat="44.81854663171859" lon="7.257952407762706"><ele>473.75</ele><time>2026-04-26T13:22:01Z</time></trkpt><trkpt lat="44.81851607021255" lon="7.258119605604026"><ele>473.5</ele><time>2026-04-26T13:22:03Z</time></trkpt><trkpt lat="44.81847975646201" lon="7.258270972246384"><ele>473.25</ele><time>2026-04-26T13:22:05Z</time></trkpt><trkpt lat="44.81844883073727" lon="7.258434239239673"><ele>473.0</ele><time>2026-04-26T13:22:07Z</time></trkpt><trkpt lat="44.81842207164198" lon="7.2585954616383805"><ele>471.59999999999997</ele><time>2026-04-26T13:22:09Z</time></trkpt><trkpt lat="44.81839220008315" lon="7.258750526765022"><ele>470.19999999999993</ele><time>2026-04-26T13:22:11Z</time></trkpt><trkpt lat="44.81836076321586" lon="7.258896648318734"><ele>468.8</ele><time>2026-04-26T13:22:13Z</time></trkpt><trkpt lat="44.81833775624235" lon="7.2590470335568025"><ele>467.4</ele><time>2026-04-26T13:22:15Z</time></trkpt><trkpt lat="44.81830412836318" lon="7.259204736290025"><ele>466.0</ele><time>2026-04-26T13:22:17Z</time></trkpt><trkpt lat="44.818265862938986" lon="7.259367116676645"><ele>465.83333333333337</ele><time>2026-04-26T13:22:19Z</time></trkpt><trkpt lat="44.81823481826284" lon="7.259530316190706"><ele>465.6666666666667</ele><time>2026-04-26T13:22:21Z</time></trkpt><trkpt lat="44.818202170596315" lon="7.259695781307203"><ele>465.5</ele><time>2026-04-26T13:22:23Z</time></trkpt><trkpt lat="44.818180334951755" lon="7.259779592439353"><ele>465.33333333333337</ele><time>2026-04-26T13:22:24Z</time></trkpt><trkpt lat="44.81816131539719" lon="7.259864547611934"><ele>465.1666666666667</ele><time>2026-04-26T13:22:25Z</time></trkpt><trkpt lat="44.81814358359908" lon="7.259950961252067"><ele>465.0</ele><time>2026-04-26T13:22:26Z</time></trkpt><trkpt lat="44.81812561213247" lon="7.260038563746036"><ele>464.57142857142856</ele><time>2026-04-26T13:22:27Z</time></trkpt><trkpt lat="44.8181071656539" lon="7.260126344136305"><ele>464.14285714285717</ele><time>2026-04-26T13:22:28Z</time></trkpt><trkpt lat="44.818086959223955" lon="7.2602112369777725"><ele>463.7142857142857</ele><time>2026-04-26T13:22:29Z</time></trkpt><trkpt lat="44.81806641763152" lon="7.260295779973834"><ele>463.2857142857143</ele><time>2026-04-26T13:22:30Z</time></trkpt><trkpt lat="44.81804675369719" lon="7.260380809024347"><ele>462.8571428571429</ele><time>2026-04-26T13:22:31Z</time></trkpt><trkpt lat="44.818027839643186" lon="7.26046686722227"><ele>462.42857142857144</ele><time>2026-04-26T13:22:32Z</time></trkpt><trkpt lat="44.818008651481804" lon="7.260556020846424"><ele>462.0</ele><time>2026-04-26T13:22:33Z</time></trkpt><trkpt lat="44.81798797619556" lon="7.260645726322289"><ele>461.8571428571429</ele><time>2026-04-26T13:22:34Z</time></trkpt><trkpt lat="44.81796777832581" lon="7.260736232549338"><ele>461.7142857142857</ele><time>2026-04-26T13:22:35Z</time></trkpt><trkpt lat="44.81794830419176" lon="7.260827223114752"><ele>461.57142857142856</ele><time>2026-04-26T13:22:36Z</time></trkpt><trkpt lat="44.81792737995138" lon="7.260918072960339"><ele>461.42857142857144</ele><time>2026-04-26T13:22:37Z</time></trkpt><trkpt lat="44.81790765457759" lon="7.261010808814526"><ele>461.28571428571433</ele><time>2026-04-26T13:22:38Z</time></trkpt><trkpt lat="44.81788688052117" lon="7.261103696044562"><ele>461.14285714285717</ele><time>2026-04-26T13:22:39Z</time></trkpt><trkpt lat="44.817864907502596" lon="7.2611964249166405"><ele>461.0</ele><time>2026-04-26T13:22:40Z</time></trkpt><trkpt lat="44.81784100744762" lon="7.261287788318239"><ele>461.0</ele><time>2026-04-26T13:22:41Z</time></trkpt><trkpt lat="44.8178166462097" lon="7.2613801880764095"><ele>461.00000000000006</ele><time>2026-04-26T13:22:42Z</time></trkpt><trkpt lat="44.817791456293115" lon="7.261471020511908"><ele>461.0</ele><time>2026-04-26T13:22:43Z</time></trkpt><trkpt lat="44.81776312091081" lon="7.261560776982549"><ele>461.0</ele><time>2026-04-26T13:22:44Z</time></trkpt><trkpt lat="44.81773957508949" lon="7.261650743649807"><ele>461.00000000000006</ele><time>2026-04-26T13:22:45Z</time></trkpt><trkpt lat="44.817720897533896" lon="7.261752220722437"><ele>461.0</ele><time>2026-04-26T13:22:46Z</time></trkpt><trkpt lat="44.81770026785284" lon="7.261853351431782"><ele>461.0</ele><time>2026-04-26T13:22:47Z</time></trkpt><trkpt lat="44.81764825560936" lon="7.262008966452804"><ele>460.7142857142857</ele><time>2026-04-26T13:22:49Z</time></trkpt><trkpt lat="44.81762579245796" lon="7.262098819345078"><ele>460.42857142857144</ele><time>2026-04-26T13:22:50Z</time></trkpt><trkpt lat="44.81760418098891" lon="7.262186926247032"><ele>460.14285714285717</ele><time>2026-04-26T13:22:51Z</time></trkpt><trkpt lat="44.81758818039392" lon="7.262275254993721"><ele>459.8571428571429</ele><time>2026-04-26T13:22:52Z</time></trkpt><trkpt lat="44.81757684879136" lon="7.26236364102608"><ele>459.57142857142856</ele><time>2026-04-26T13:22:53Z</time></trkpt><trkpt lat="44.8175636583495" lon="7.262452649852026"><ele>459.28571428571433</ele><time>2026-04-26T13:22:54Z</time></trkpt><trkpt lat="44.817535787130744" lon="7.26262114690139"><ele>459.0</ele><time>2026-04-26T13:22:56Z</time></trkpt><trkpt lat="44.81751723761354" lon="7.262795809264367"><ele>458.8571428571429</ele><time>2026-04-26T13:22:58Z</time></trkpt><trkpt lat="44.81751373258918" lon="7.262885880101364"><ele>458.71428571428567</ele><time>2026-04-26T13:22:59Z</time></trkpt><trkpt lat="44.817516777688304" lon="7.262979814653854"><ele>458.57142857142856</ele><time>2026-04-26T13:23:00Z</time></trkpt><trkpt lat="44.81752801032624" lon="7.26306971709876"><ele>458.42857142857144</ele><time>2026-04-26T13:23:01Z</time></trkpt><trkpt lat="44.81754150340993" lon="7.263157407716364"><ele>458.28571428571433</ele><time>2026-04-26T13:23:02Z</time></trkpt><trkpt lat="44.81755821185546" lon="7.263253947140823"><ele>458.1428571428571</ele><time>2026-04-26T13:23:02.999Z</time></trkpt><trkpt lat="44.81757467791399" lon="7.2633470220631295"><ele>458.0</ele><time>2026-04-26T13:23:03.999Z</time></trkpt><trkpt lat="44.81758901427682" lon="7.263440296723956"><ele>458.16666666666663</ele><time>2026-04-26T13:23:04.999Z</time></trkpt><trkpt lat="44.81760779618345" lon="7.2635310849267505"><ele>458.3333333333333</ele><time>2026-04-26T13:23:05.999Z</time></trkpt><trkpt lat="44.8176237952395" lon="7.263618031112981"><ele>458.5</ele><time>2026-04-26T13:23:06.999Z</time></trkpt><trkpt lat="44.81764542277506" lon="7.263702573242492"><ele>458.66666666666663</ele><time>2026-04-26T13:23:07.999Z</time></trkpt><trkpt lat="44.81770271103237" lon="7.263854873308019"><ele>458.8333333333333</ele><time>2026-04-26T13:23:09.999Z</time></trkpt><trkpt lat="44.81775069850046" lon="7.263918389696284"><ele>459.0</ele><time>2026-04-26T13:23:10.999Z</time></trkpt><trkpt lat="44.817825676125565" lon="7.264059819905372"><ele>459.0</ele><time>2026-04-26T13:23:12.999Z</time></trkpt><trkpt lat="44.81785844391281" lon="7.264147123872977"><ele>459.0</ele><time>2026-04-26T13:23:13.999Z</time></trkpt><trkpt lat="44.817906337636096" lon="7.264305490512684"><ele>459.0</ele><time>2026-04-26T13:23:15.999Z</time></trkpt><trkpt lat="44.81792436699876" lon="7.264394439157383"><ele>459.0</ele><time>2026-04-26T13:23:16.999Z</time></trkpt><trkpt lat="44.81796138278541" lon="7.2645595542749435"><ele>459.0</ele><time>2026-04-26T13:23:18.999Z</time></trkpt><trkpt lat="44.81797170351601" lon="7.264651460392925"><ele>459.0</ele><time>2026-04-26T13:23:19.999Z</time></trkpt><trkpt lat="44.81798415527313" lon="7.2648262678734055"><ele>458.6</ele><time>2026-04-26T13:23:21.999Z</time></trkpt><trkpt lat="44.81798365617302" lon="7.264915457854779"><ele>458.2</ele><time>2026-04-26T13:23:22.999Z</time></trkpt><trkpt lat="44.81796281682603" lon="7.2650904801345355"><ele>457.80000000000007</ele><time>2026-04-26T13:23:24.999Z</time></trkpt><trkpt lat="44.81793986930447" lon="7.265258460915053"><ele>457.40000000000003</ele><time>2026-04-26T13:23:26.999Z</time></trkpt><trkpt lat="44.81793169522936" lon="7.265424931806006"><ele>457.0</ele><time>2026-04-26T13:23:28.999Z</time></trkpt><trkpt lat="44.81793270039032" lon="7.265514752784117"><ele>457.0</ele><time>2026-04-26T13:23:29.999Z</time></trkpt><trkpt lat="44.81794974119613" lon="7.265684994291598"><ele>457.0</ele><time>2026-04-26T13:23:31.999Z</time></trkpt><trkpt lat="44.81797181764044" lon="7.2658527325461115"><ele>457.0</ele><time>2026-04-26T13:23:33.999Z</time></trkpt><trkpt lat="44.817989530498124" lon="7.266023771891927"><ele>457.0</ele><time>2026-04-26T13:23:35.999Z</time></trkpt><trkpt lat="44.818002967227606" lon="7.266186158101236"><ele>457.0</ele><time>2026-04-26T13:23:37.999Z</time></trkpt><trkpt lat="44.81801524799687" lon="7.266349085237916"><ele>457.00000000000006</ele><time>2026-04-26T13:23:39.999Z</time></trkpt><trkpt lat="44.8180306156844" lon="7.266507991859468"><ele>457.00000000000006</ele><time>2026-04-26T13:23:41.999Z</time></trkpt><trkpt lat="44.81805688355681" lon="7.266656804702014"><ele>457.0</ele><time>2026-04-26T13:23:43.999Z</time></trkpt><trkpt lat="44.818093073267576" lon="7.266795660677832"><ele>457.0</ele><time>2026-04-26T13:23:45.999Z</time></trkpt><trkpt lat="44.81812817768173" lon="7.2669280906543285"><ele>457.6666666666667</ele><time>2026-04-26T13:23:48Z</time></trkpt><trkpt lat="44.81816428638426" lon="7.2670610844269445"><ele>458.33333333333337</ele><time>2026-04-26T13:23:50Z</time></trkpt><trkpt lat="44.81818091700826" lon="7.267197471487343"><ele>459.0</ele><time>2026-04-26T13:23:52Z</time></trkpt><trkpt lat="44.81817614512297" lon="7.267321004585495"><ele>459.66666666666663</ele><time>2026-04-26T13:23:54Z</time></trkpt><trkpt lat="44.818167446665804" lon="7.267439690495897"><ele>460.3333333333333</ele><time>2026-04-26T13:23:56Z</time></trkpt><trkpt lat="44.81815918392" lon="7.267545441953695"><ele>461.0</ele><time>2026-04-26T13:23:58Z</time></trkpt><trkpt lat="44.81815086173568" lon="7.2676428682125644"><ele>461.16666666666663</ele><time>2026-04-26T13:24:00Z</time></trkpt><trkpt lat="44.81814386230187" lon="7.267740284004329"><ele>461.3333333333333</ele><time>2026-04-26T13:24:02Z</time></trkpt><trkpt lat="44.81813072192575" lon="7.267872288585405"><ele>461.5</ele><time>2026-04-26T13:24:05Z</time></trkpt><trkpt lat="44.81811853953584" lon="7.268002970266871"><ele>461.66666666666663</ele><time>2026-04-26T13:24:08Z</time></trkpt><trkpt lat="44.818109837728294" lon="7.268128161457413"><ele>461.8333333333333</ele><time>2026-04-26T13:24:11Z</time></trkpt><trkpt lat="44.81807687374664" lon="7.2682541714577225"><ele>462.0</ele><time>2026-04-26T13:24:14Z</time></trkpt><trkpt lat="44.818054215809" lon="7.268340976242139"><ele>462.3333333333333</ele><time>2026-04-26T13:24:16Z</time></trkpt><trkpt lat="44.818024432871454" lon="7.268430554981243"><ele>462.66666666666663</ele><time>2026-04-26T13:24:18Z</time></trkpt><trkpt lat="44.81798999937455" lon="7.268531231334427"><ele>463.0</ele><time>2026-04-26T13:24:20Z</time></trkpt><trkpt lat="44.81795503713946" lon="7.268637432211728"><ele>463.3333333333333</ele><time>2026-04-26T13:24:22Z</time></trkpt><trkpt lat="44.81792756712572" lon="7.268761989859076"><ele>463.66666666666663</ele><time>2026-04-26T13:24:24Z</time></trkpt><trkpt lat="44.8178962111956" lon="7.268895157736588"><ele>464.0</ele><time>2026-04-26T13:24:26Z</time></trkpt><trkpt lat="44.81785058368297" lon="7.269039097670075"><ele>464.5</ele><time>2026-04-26T13:24:28Z</time></trkpt><trkpt lat="44.81780970676597" lon="7.269194279276804"><ele>465.0</ele><time>2026-04-26T13:24:30Z</time></trkpt><trkpt lat="44.817770439234" lon="7.269354729109911"><ele>465.5</ele><time>2026-04-26T13:24:32Z</time></trkpt><trkpt lat="44.817726627768074" lon="7.26951733930184"><ele>466.0</ele><time>2026-04-26T13:24:34Z</time></trkpt><trkpt lat="44.81768658072985" lon="7.269674307592103"><ele>463.25</ele><time>2026-04-26T13:24:36Z</time></trkpt><trkpt lat="44.817642467754766" lon="7.269830394003787"><ele>460.5</ele><time>2026-04-26T13:24:38Z</time></trkpt><trkpt lat="44.817599296400616" lon="7.2699829996345535"><ele>457.75</ele><time>2026-04-26T13:24:40Z</time></trkpt><trkpt lat="44.817553396721586" lon="7.270138037247103"><ele>455.0</ele><time>2026-04-26T13:24:42Z</time></trkpt><trkpt lat="44.817515184775104" lon="7.270309548923444"><ele>455.0</ele><time>2026-04-26T13:24:44Z</time></trkpt><trkpt lat="44.817496921283514" lon="7.270396515977883"><ele>455.0</ele><time>2026-04-26T13:24:45Z</time></trkpt><trkpt lat="44.81747534952667" lon="7.270483017796322"><ele>455.0</ele><time>2026-04-26T13:24:46Z</time></trkpt><trkpt lat="44.81744971553197" lon="7.270567070615092"><ele>455.0</ele><time>2026-04-26T13:24:47Z</time></trkpt><trkpt lat="44.81742177744383" lon="7.27065176961758"><ele>455.0</ele><time>2026-04-26T13:24:48Z</time></trkpt><trkpt lat="44.817392518277956" lon="7.270731791564658"><ele>455.0</ele><time>2026-04-26T13:24:49Z</time></trkpt><trkpt lat="44.81736097705637" lon="7.270811324064778"><ele>455.0</ele><time>2026-04-26T13:24:50Z</time></trkpt><trkpt lat="44.81732272902614" lon="7.270886538698321"><ele>455.1428571428571</ele><time>2026-04-26T13:24:51Z</time></trkpt><trkpt lat="44.81728692703443" lon="7.270962355083737"><ele>455.2857142857143</ele><time>2026-04-26T13:24:52Z</time></trkpt><trkpt lat="44.817258051404686" lon="7.271044015496743"><ele>455.42857142857144</ele><time>2026-04-26T13:24:53Z</time></trkpt><trkpt lat="44.81722824261144" lon="7.2711237716821016"><ele>455.57142857142856</ele><time>2026-04-26T13:24:54Z</time></trkpt><trkpt lat="44.8171996986451" lon="7.271205510071534"><ele>455.71428571428567</ele><time>2026-04-26T13:24:55Z</time></trkpt><trkpt lat="44.81717142090372" lon="7.271287512564261"><ele>455.85714285714283</ele><time>2026-04-26T13:24:56Z</time></trkpt><trkpt lat="44.81714225550641" lon="7.271367424188926"><ele>456.0</ele><time>2026-04-26T13:24:57Z</time></trkpt><trkpt lat="44.81711449217727" lon="7.271450424430115"><ele>456.71428571428567</ele><time>2026-04-26T13:24:58Z</time></trkpt><trkpt lat="44.817083938435346" lon="7.271529310701191"><ele>457.4285714285714</ele><time>2026-04-26T13:24:59Z</time></trkpt><trkpt lat="44.817054334283" lon="7.271609398034751"><ele>458.1428571428571</ele><time>2026-04-26T13:25:00Z</time></trkpt><trkpt lat="44.817028579173815" lon="7.271692867709586"><ele>458.8571428571429</ele><time>2026-04-26T13:25:01Z</time></trkpt><trkpt lat="44.81700215417153" lon="7.271777116725552"><ele>459.5714285714286</ele><time>2026-04-26T13:25:02.001Z</time></trkpt><trkpt lat="44.81697594282226" lon="7.271862917342584"><ele>460.28571428571433</ele><time>2026-04-26T13:25:03.001Z</time></trkpt><trkpt lat="44.81694976847997" lon="7.271946140145244"><ele>461.0</ele><time>2026-04-26T13:25:04.001Z</time></trkpt><trkpt lat="44.81692528791226" lon="7.272029020749324"><ele>461.0</ele><time>2026-04-26T13:25:05.001Z</time></trkpt><trkpt lat="44.81687607422203" lon="7.272188531891586"><ele>461.0</ele><time>2026-04-26T13:25:07.001Z</time></trkpt><trkpt lat="44.81682674845187" lon="7.2723410349321895"><ele>461.0</ele><time>2026-04-26T13:25:08.999Z</time></trkpt><trkpt lat="44.816793085706685" lon="7.272497794345805"><ele>461.0</ele><time>2026-04-26T13:25:10.999Z</time></trkpt><trkpt lat="44.81678655894392" lon="7.272652740624444"><ele>462.16666666666663</ele><time>2026-04-26T13:25:12.999Z</time></trkpt><trkpt lat="44.816793575585734" lon="7.272793329250181"><ele>463.3333333333333</ele><time>2026-04-26T13:25:14.999Z</time></trkpt><trkpt lat="44.81680348641373" lon="7.27291985779588"><ele>464.5</ele><time>2026-04-26T13:25:16.999Z</time></trkpt><trkpt lat="44.81681577849753" lon="7.27303617054965"><ele>465.66666666666663</ele><time>2026-04-26T13:25:18.999Z</time></trkpt><trkpt lat="44.8168257771545" lon="7.273157603294512"><ele>466.8333333333333</ele><time>2026-04-26T13:25:20.999Z</time></trkpt><trkpt lat="44.81683053536621" lon="7.273279551174944"><ele>468.0</ele><time>2026-04-26T13:25:22.999Z</time></trkpt><trkpt lat="44.81682485907612" lon="7.273401682759247"><ele>466.0</ele><time>2026-04-26T13:25:24.999Z</time></trkpt><trkpt lat="44.81681269555431" lon="7.273528327471982"><ele>463.99999999999994</ele><time>2026-04-26T13:25:26.999Z</time></trkpt><trkpt lat="44.816787394431664" lon="7.273647337976299"><ele>461.99999999999994</ele><time>2026-04-26T13:25:28.999Z</time></trkpt><trkpt lat="44.81673651452815" lon="7.273761707568298"><ele>460.0</ele><time>2026-04-26T13:25:30.999Z</time></trkpt><trkpt lat="44.81668321423715" lon="7.273894169562573"><ele>458.0</ele><time>2026-04-26T13:25:32.999Z</time></trkpt><trkpt lat="44.81662275858174" lon="7.274039839628863"><ele>458.0</ele><time>2026-04-26T13:25:34.999Z</time></trkpt><trkpt lat="44.8165928674838" lon="7.274119095089415"><ele>458.0</ele><time>2026-04-26T13:25:35.999Z</time></trkpt><trkpt lat="44.816562510721106" lon="7.274200091163698"><ele>458.0</ele><time>2026-04-26T13:25:36.999Z</time></trkpt><trkpt lat="44.81653253732258" lon="7.274280465994916"><ele>458.0</ele><time>2026-04-26T13:25:37.999Z</time></trkpt><trkpt lat="44.81650091873305" lon="7.27436100142883"><ele>458.0</ele><time>2026-04-26T13:25:38.999Z</time></trkpt><trkpt lat="44.816471425266556" lon="7.274442464021755"><ele>458.0</ele><time>2026-04-26T13:25:39.999Z</time></trkpt><trkpt lat="44.81644049661739" lon="7.27452394141201"><ele>458.0</ele><time>2026-04-26T13:25:40.999Z</time></trkpt><trkpt lat="44.81641127218761" lon="7.274606525342766"><ele>458.0</ele><time>2026-04-26T13:25:41.999Z</time></trkpt><trkpt lat="44.816386072965464" lon="7.274689363072313"><ele>458.0</ele><time>2026-04-26T13:25:42.999Z</time></trkpt><trkpt lat="44.81636112511161" lon="7.274777470617767"><ele>458.0</ele><time>2026-04-26T13:25:43.999Z</time></trkpt><trkpt lat="44.81633910936635" lon="7.274866255013631"><ele>458.0</ele><time>2026-04-26T13:25:44.999Z</time></trkpt><trkpt lat="44.81631695149195" lon="7.2749549410623855"><ele>458.0</ele><time>2026-04-26T13:25:45.999Z</time></trkpt><trkpt lat="44.81629427710273" lon="7.275041946455222"><ele>458.0</ele><time>2026-04-26T13:25:46.999Z</time></trkpt><trkpt lat="44.81627175945515" lon="7.275130083976579"><ele>458.0</ele><time>2026-04-26T13:25:47.999Z</time></trkpt><trkpt lat="44.81625174280161" lon="7.2752171396230745"><ele>458.2857142857143</ele><time>2026-04-26T13:25:49Z</time></trkpt><trkpt lat="44.81623134763098" lon="7.2753047246012645"><ele>458.57142857142856</ele><time>2026-04-26T13:25:50Z</time></trkpt><trkpt lat="44.81620950510981" lon="7.275392303560999"><ele>458.85714285714283</ele><time>2026-04-26T13:25:51Z</time></trkpt><trkpt lat="44.81618627420667" lon="7.27548169666981"><ele>459.1428571428571</ele><time>2026-04-26T13:25:52Z</time></trkpt><trkpt lat="44.81616255506144" lon="7.27557060367205"><ele>459.42857142857144</ele><time>2026-04-26T13:25:53Z</time></trkpt><trkpt lat="44.81613844727585" lon="7.275658003071074"><ele>459.71428571428567</ele><time>2026-04-26T13:25:54Z</time></trkpt><trkpt lat="44.81611544399417" lon="7.275744091927949"><ele>459.99999999999994</ele><time>2026-04-26T13:25:55Z</time></trkpt><trkpt lat="44.81609430010511" lon="7.2758326282802805"><ele>459.99999999999994</ele><time>2026-04-26T13:25:56Z</time></trkpt><trkpt lat="44.81607353282538" lon="7.2759223417032866"><ele>460.0</ele><time>2026-04-26T13:25:57Z</time></trkpt><trkpt lat="44.8160557199221" lon="7.276009779701133"><ele>459.99999999999994</ele><time>2026-04-26T13:25:58Z</time></trkpt><trkpt lat="44.816054599181705" lon="7.276100831894048"><ele>459.99999999999994</ele><time>2026-04-26T13:25:59Z</time></trkpt><trkpt lat="44.816069048425895" lon="7.276192676352238"><ele>460.0</ele><time>2026-04-26T13:26:00Z</time></trkpt><trkpt lat="44.816084175918306" lon="7.276279902078305"><ele>459.99999999999994</ele><time>2026-04-26T13:26:01Z</time></trkpt><trkpt lat="44.816100102593325" lon="7.276440618801755"><ele>459.99999999999994</ele><time>2026-04-26T13:26:03Z</time></trkpt><trkpt lat="44.81607159613584" lon="7.276592444074203"><ele>461.5</ele><time>2026-04-26T13:26:05Z</time></trkpt><trkpt lat="44.81603489251822" lon="7.2767387510658414"><ele>463.0</ele><time>2026-04-26T13:26:07Z</time></trkpt><trkpt lat="44.8159978730508" lon="7.276887161113591"><ele>464.5</ele><time>2026-04-26T13:26:09Z</time></trkpt><trkpt lat="44.8159583406347" lon="7.277037650712559"><ele>466.0</ele><time>2026-04-26T13:26:11Z</time></trkpt><trkpt lat="44.81592078336477" lon="7.277191540595904"><ele>463.0</ele><time>2026-04-26T13:26:13Z</time></trkpt><trkpt lat="44.815888353626704" lon="7.277348316658129"><ele>460.0</ele><time>2026-04-26T13:26:15Z</time></trkpt><trkpt lat="44.815869722247335" lon="7.277510269194813"><ele>457.0</ele><time>2026-04-26T13:26:17Z</time></trkpt><trkpt lat="44.81587887782729" lon="7.2776761616210806"><ele>454.0</ele><time>2026-04-26T13:26:19Z</time></trkpt><trkpt lat="44.81590043323378" lon="7.277827042200039"><ele>454.00000000000006</ele><time>2026-04-26T13:26:21Z</time></trkpt><trkpt lat="44.815887881682016" lon="7.277966756736454"><ele>454.0</ele><time>2026-04-26T13:26:23Z</time></trkpt><trkpt lat="44.815862851607086" lon="7.2780885788015395"><ele>454.0</ele><time>2026-04-26T13:26:25Z</time></trkpt><trkpt lat="44.81583247864731" lon="7.278196581875154"><ele>454.0</ele><time>2026-04-26T13:26:27Z</time></trkpt><trkpt lat="44.81580347639268" lon="7.278307338533263"><ele>454.00000000000006</ele><time>2026-04-26T13:26:29Z</time></trkpt><trkpt lat="44.8157715915699" lon="7.278417190944862"><ele>454.0</ele><time>2026-04-26T13:26:31Z</time></trkpt><trkpt lat="44.8157403799121" lon="7.278528761028036"><ele>454.50000000000006</ele><time>2026-04-26T13:26:33Z</time></trkpt><trkpt lat="44.81570693794483" lon="7.278638109331562"><ele>455.0</ele><time>2026-04-26T13:26:35Z</time></trkpt><trkpt lat="44.81567395382034" lon="7.278750220307914"><ele>455.5</ele><time>2026-04-26T13:26:37Z</time></trkpt><trkpt lat="44.81563996623107" lon="7.278861611557061"><ele>456.0</ele><time>2026-04-26T13:26:39Z</time></trkpt><trkpt lat="44.81559911597744" lon="7.278973515120039"><ele>456.50000000000006</ele><time>2026-04-26T13:26:41Z</time></trkpt><trkpt lat="44.815553886269996" lon="7.2790843657110065"><ele>457.0</ele><time>2026-04-26T13:26:43Z</time></trkpt><trkpt lat="44.81550530072963" lon="7.2792061988372945"><ele>458.0</ele><time>2026-04-26T13:26:45Z</time></trkpt><trkpt lat="44.81545273129688" lon="7.279335869760543"><ele>459.00000000000006</ele><time>2026-04-26T13:26:47Z</time></trkpt><trkpt lat="44.815394991618795" lon="7.279468550566945"><ele>460.00000000000006</ele><time>2026-04-26T13:26:49Z</time></trkpt><trkpt lat="44.8153406946804" lon="7.2796071503001425"><ele>461.0</ele><time>2026-04-26T13:26:51Z</time></trkpt><trkpt lat="44.81527425976474" lon="7.27973591358909"><ele>462.0</ele><time>2026-04-26T13:26:53Z</time></trkpt><trkpt lat="44.815187196774204" lon="7.279844039615045"><ele>460.3333333333333</ele><time>2026-04-26T13:26:55.001Z</time></trkpt><trkpt lat="44.81510126587759" lon="7.2799569332650265"><ele>458.66666666666663</ele><time>2026-04-26T13:26:57.001Z</time></trkpt><trkpt lat="44.8150162344464" lon="7.280082570084679"><ele>457.0</ele><time>2026-04-26T13:26:59.001Z</time></trkpt><trkpt lat="44.81497435868938" lon="7.28015283506144"><ele>455.3333333333333</ele><time>2026-04-26T13:27:00.001Z</time></trkpt><trkpt lat="44.81493624536553" lon="7.280231262637007"><ele>453.66666666666663</ele><time>2026-04-26T13:27:01.001Z</time></trkpt><trkpt lat="44.81489887989908" lon="7.280314185579342"><ele>452.0</ele><time>2026-04-26T13:27:02.001Z</time></trkpt><trkpt lat="44.81486202294728" lon="7.280395336842937"><ele>452.0</ele><time>2026-04-26T13:27:03.001Z</time></trkpt><trkpt lat="44.81482080613075" lon="7.280475807821443"><ele>452.0</ele><time>2026-04-26T13:27:04.001Z</time></trkpt><trkpt lat="44.81477695352899" lon="7.28055255070179"><ele>452.0</ele><time>2026-04-26T13:27:05.001Z</time></trkpt><trkpt lat="44.81473229779736" lon="7.280624095850429"><ele>452.0</ele><time>2026-04-26T13:27:06.001Z</time></trkpt><trkpt lat="44.81468642198632" lon="7.280696442434904"><ele>452.0</ele><time>2026-04-26T13:27:07.001Z</time></trkpt><trkpt lat="44.81463928404977" lon="7.280767288560239"><ele>452.0</ele><time>2026-04-26T13:27:08.001Z</time></trkpt><trkpt lat="44.81459323344386" lon="7.280840845866456"><ele>452.0</ele><time>2026-04-26T13:27:09.001Z</time></trkpt><trkpt lat="44.814545301277924" lon="7.280917067371401"><ele>452.14285714285717</ele><time>2026-04-26T13:27:10.001Z</time></trkpt><trkpt lat="44.81449359719702" lon="7.280991557997554"><ele>452.2857142857142</ele><time>2026-04-26T13:27:11.001Z</time></trkpt><trkpt lat="44.81444263980979" lon="7.281068173915233"><ele>452.4285714285714</ele><time>2026-04-26T13:27:12.001Z</time></trkpt><trkpt lat="44.8143909956703" lon="7.281143545830298"><ele>452.57142857142856</ele><time>2026-04-26T13:27:13.001Z</time></trkpt><trkpt lat="44.81433874469241" lon="7.281219547308576"><ele>452.71428571428567</ele><time>2026-04-26T13:27:14.001Z</time></trkpt><trkpt lat="44.814286162844965" lon="7.281297602865325"><ele>452.8571428571428</ele><time>2026-04-26T13:27:14.999Z</time></trkpt><trkpt lat="44.81423503175497" lon="7.281373153755387"><ele>452.99999999999994</ele><time>2026-04-26T13:27:15.999Z</time></trkpt><trkpt lat="44.81418769783894" lon="7.281454190326115"><ele>452.99999999999994</ele><time>2026-04-26T13:27:16.999Z</time></trkpt><trkpt lat="44.81413841917777" lon="7.2815290181075"><ele>453.0</ele><time>2026-04-26T13:27:17.999Z</time></trkpt><trkpt lat="44.81408147851705" lon="7.281599067305847"><ele>452.99999999999994</ele><time>2026-04-26T13:27:18.999Z</time></trkpt><trkpt lat="44.81403031961431" lon="7.281667639142841"><ele>452.99999999999994</ele><time>2026-04-26T13:27:19.999Z</time></trkpt><trkpt lat="44.81398245759276" lon="7.281735832437787"><ele>453.0</ele><time>2026-04-26T13:27:20.999Z</time></trkpt><trkpt lat="44.81393704133141" lon="7.28180393151696"><ele>452.99999999999994</ele><time>2026-04-26T13:27:21.999Z</time></trkpt><trkpt lat="44.81389110335698" lon="7.281872202790663"><ele>452.99999999999994</ele><time>2026-04-26T13:27:22.999Z</time></trkpt><trkpt lat="44.81384465747443" lon="7.281940823169477"><ele>452.99999999999994</ele><time>2026-04-26T13:27:23.999Z</time></trkpt><trkpt lat="44.813797665104694" lon="7.282007259808667"><ele>453.0</ele><time>2026-04-26T13:27:24.999Z</time></trkpt><trkpt lat="44.81374625790927" lon="7.282074323087185"><ele>452.99999999999994</ele><time>2026-04-26T13:27:25.999Z</time></trkpt><trkpt lat="44.813692233341946" lon="7.282133099396975"><ele>452.99999999999994</ele><time>2026-04-26T13:27:26.999Z</time></trkpt><trkpt lat="44.81363128935533" lon="7.282183869827172"><ele>453.0</ele><time>2026-04-26T13:27:27.999Z</time></trkpt><trkpt lat="44.813567898154474" lon="7.282233843364412"><ele>452.99999999999994</ele><time>2026-04-26T13:27:28.999Z</time></trkpt><trkpt lat="44.813501305247556" lon="7.2822908543772265"><ele>452.99999999999994</ele><time>2026-04-26T13:27:29.999Z</time></trkpt><trkpt lat="44.81343447976391" lon="7.282340739805363"><ele>452.14285714285705</ele><time>2026-04-26T13:27:30.999Z</time></trkpt><trkpt lat="44.81336266610367" lon="7.282373940365764"><ele>451.2857142857143</ele><time>2026-04-26T13:27:31.999Z</time></trkpt><trkpt lat="44.81328733174322" lon="7.282388635286553"><ele>450.4285714285714</ele><time>2026-04-26T13:27:32.999Z</time></trkpt><trkpt lat="44.81321319227643" lon="7.282394540664419"><ele>449.57142857142856</ele><time>2026-04-26T13:27:33.999Z</time></trkpt><trkpt lat="44.81313997000639" lon="7.2823924895430485"><ele>448.71428571428567</ele><time>2026-04-26T13:27:34.999Z</time></trkpt><trkpt lat="44.813074610904195" lon="7.282423444429953"><ele>447.85714285714283</ele><time>2026-04-26T13:27:35.999Z</time></trkpt><trkpt lat="44.8130160115417" lon="7.282482489838671"><ele>447.0</ele><time>2026-04-26T13:27:36.999Z</time></trkpt><trkpt lat="44.812962805438694" lon="7.282545797221638"><ele>446.99999999999994</ele><time>2026-04-26T13:27:37.999Z</time></trkpt><trkpt lat="44.81291072452304" lon="7.2826159024627195"><ele>447.0</ele><time>2026-04-26T13:27:38.999Z</time></trkpt><trkpt lat="44.81286519313069" lon="7.282691919188966"><ele>447.0</ele><time>2026-04-26T13:27:39.999Z</time></trkpt><trkpt lat="44.81282201759148" lon="7.282767526910968"><ele>447.0</ele><time>2026-04-26T13:27:40.999Z</time></trkpt><trkpt lat="44.8127720504858" lon="7.282839778770652"><ele>447.0</ele><time>2026-04-26T13:27:41.999Z</time></trkpt><trkpt lat="44.81272251596034" lon="7.282907751140406"><ele>446.99999999999994</ele><time>2026-04-26T13:27:42.999Z</time></trkpt><trkpt lat="44.812677942708824" lon="7.28297782126089"><ele>447.0</ele><time>2026-04-26T13:27:43.999Z</time></trkpt><trkpt lat="44.812641262723766" lon="7.283053153365987"><ele>446.6</ele><time>2026-04-26T13:27:44.999Z</time></trkpt><trkpt lat="44.81261218350676" lon="7.283134572115203"><ele>446.20000000000005</ele><time>2026-04-26T13:27:45.999Z</time></trkpt><trkpt lat="44.8125778326854" lon="7.283211242139397"><ele>445.8</ele><time>2026-04-26T13:27:46.999Z</time></trkpt><trkpt lat="44.81252200432125" lon="7.283372536799351"><ele>445.4</ele><time>2026-04-26T13:27:48.999Z</time></trkpt><trkpt lat="44.81247360951655" lon="7.283529970769721"><ele>445.0</ele><time>2026-04-26T13:27:50.999Z</time></trkpt><trkpt lat="44.812425520671795" lon="7.28369240080336"><ele>445.0</ele><time>2026-04-26T13:27:52.999Z</time></trkpt><trkpt lat="44.81238089728246" lon="7.283845817127268"><ele>445.0</ele><time>2026-04-26T13:27:55Z</time></trkpt><trkpt lat="44.81232228289896" lon="7.283982906068589"><ele>445.0</ele><time>2026-04-26T13:27:57Z</time></trkpt><trkpt lat="44.81227853047553" lon="7.284128046658649"><ele>445.0</ele><time>2026-04-26T13:27:59Z</time></trkpt><trkpt lat="44.812261466300825" lon="7.2843009918976165"><ele>445.8571428571429</ele><time>2026-04-26T13:28:01Z</time></trkpt><trkpt lat="44.81224160597955" lon="7.284390327504821"><ele>446.71428571428567</ele><time>2026-04-26T13:28:02Z</time></trkpt><trkpt lat="44.812220902117836" lon="7.284479359596213"><ele>447.57142857142856</ele><time>2026-04-26T13:28:03Z</time></trkpt><trkpt lat="44.8121964702133" lon="7.284570828041715"><ele>448.42857142857144</ele><time>2026-04-26T13:28:04Z</time></trkpt><trkpt lat="44.81216993368195" lon="7.284663290799314"><ele>449.28571428571433</ele><time>2026-04-26T13:28:05Z</time></trkpt><trkpt lat="44.812144092571415" lon="7.284757911568432"><ele>450.1428571428571</ele><time>2026-04-26T13:28:06Z</time></trkpt><trkpt lat="44.81211689180187" lon="7.2848501747005505"><ele>451.0</ele><time>2026-04-26T13:28:07Z</time></trkpt><trkpt lat="44.81206813965077" lon="7.284998385729701"><ele>451.50000000000006</ele><time>2026-04-26T13:28:09Z</time></trkpt><trkpt lat="44.81198020290431" lon="7.285123117002448"><ele>452.0</ele><time>2026-04-26T13:28:11Z</time></trkpt><trkpt lat="44.811903372926274" lon="7.28514130917308"><ele>452.5</ele><time>2026-04-26T13:28:12Z</time></trkpt><trkpt lat="44.81184267033394" lon="7.285168677186768"><ele>453.0</ele><time>2026-04-26T13:28:13Z</time></trkpt><trkpt lat="44.81179059939556" lon="7.285220077530449"><ele>453.50000000000006</ele><time>2026-04-26T13:28:14Z</time></trkpt><trkpt lat="44.811755449852164" lon="7.285300065296875"><ele>454.0</ele><time>2026-04-26T13:28:15Z</time></trkpt><trkpt lat="44.81173514014703" lon="7.285390030220598"><ele>451.5714285714286</ele><time>2026-04-26T13:28:16Z</time></trkpt><trkpt lat="44.81172998026636" lon="7.285480882769373"><ele>449.1428571428572</ele><time>2026-04-26T13:28:17Z</time></trkpt><trkpt lat="44.811717782462885" lon="7.285574193545232"><ele>446.7142857142857</ele><time>2026-04-26T13:28:18Z</time></trkpt><trkpt lat="44.81170393467626" lon="7.2856706393972805"><ele>444.28571428571433</ele><time>2026-04-26T13:28:19Z</time></trkpt><trkpt lat="44.81168986591832" lon="7.285763357445501"><ele>441.8571428571429</ele><time>2026-04-26T13:28:20Z</time></trkpt><trkpt lat="44.81168192054054" lon="7.285860886872654"><ele>439.42857142857144</ele><time>2026-04-26T13:28:21Z</time></trkpt><trkpt lat="44.81167829982698" lon="7.285961432630952"><ele>437.0</ele><time>2026-04-26T13:28:22Z</time></trkpt><trkpt lat="44.811670317924474" lon="7.286062105291721"><ele>436.85714285714283</ele><time>2026-04-26T13:28:23Z</time></trkpt><trkpt lat="44.811662971074455" lon="7.286162358247673"><ele>436.7142857142857</ele><time>2026-04-26T13:28:24Z</time></trkpt><trkpt lat="44.81165438481141" lon="7.286261270799935"><ele>436.57142857142856</ele><time>2026-04-26T13:28:25Z</time></trkpt><trkpt lat="44.81164801804213" lon="7.286360142715591"><ele>436.42857142857144</ele><time>2026-04-26T13:28:26Z</time></trkpt><trkpt lat="44.81164730616697" lon="7.286460061863126"><ele>436.28571428571433</ele><time>2026-04-26T13:28:27Z</time></trkpt><trkpt lat="44.81163835998566" lon="7.286558310689035"><ele>436.14285714285717</ele><time>2026-04-26T13:28:28Z</time></trkpt><trkpt lat="44.811626729032724" lon="7.2866531783470645"><ele>436.0</ele><time>2026-04-26T13:28:29Z</time></trkpt><trkpt lat="44.811620939422845" lon="7.286751130207393"><ele>436.0</ele><time>2026-04-26T13:28:30Z</time></trkpt><trkpt lat="44.811618728267305" lon="7.286845703787405"><ele>436.0</ele><time>2026-04-26T13:28:31Z</time></trkpt><trkpt lat="44.811601134147395" lon="7.286937664041125"><ele>436.0</ele><time>2026-04-26T13:28:32Z</time></trkpt><trkpt lat="44.811577900340865" lon="7.287025389086594"><ele>436.0</ele><time>2026-04-26T13:28:33Z</time></trkpt><trkpt lat="44.81154942227389" lon="7.287115721840512"><ele>436.0</ele><time>2026-04-26T13:28:34Z</time></trkpt><trkpt lat="44.81152245158207" lon="7.287208678929368"><ele>436.0</ele><time>2026-04-26T13:28:35Z</time></trkpt><trkpt lat="44.8114957805851" lon="7.287302794431931"><ele>436.0</ele><time>2026-04-26T13:28:36Z</time></trkpt><trkpt lat="44.811466553388094" lon="7.287391532140418"><ele>437.0</ele><time>2026-04-26T13:28:37Z</time></trkpt><trkpt lat="44.81144859644394" lon="7.287484371503421"><ele>438.0</ele><time>2026-04-26T13:28:38Z</time></trkpt><trkpt lat="44.811435178162384" lon="7.2875769117284666"><ele>439.0</ele><time>2026-04-26T13:28:39Z</time></trkpt><trkpt lat="44.81143276924836" lon="7.287670376888165"><ele>440.0</ele><time>2026-04-26T13:28:40Z</time></trkpt><trkpt lat="44.81143447842834" lon="7.287760926643884"><ele>441.0</ele><time>2026-04-26T13:28:41Z</time></trkpt><trkpt lat="44.81143525157001" lon="7.287854525835441"><ele>442.0</ele><time>2026-04-26T13:28:42Z</time></trkpt><trkpt lat="44.81143630433812" lon="7.287951042380585"><ele>443.0</ele><time>2026-04-26T13:28:43Z</time></trkpt><trkpt lat="44.81143846116685" lon="7.288052875615362"><ele>443.16666666666663</ele><time>2026-04-26T13:28:44Z</time></trkpt><trkpt lat="44.81144048742053" lon="7.288154449373267"><ele>443.3333333333333</ele><time>2026-04-26T13:28:45Z</time></trkpt><trkpt lat="44.81143872164453" lon="7.288257817167234"><ele>443.5</ele><time>2026-04-26T13:28:46Z</time></trkpt><trkpt lat="44.81143622582286" lon="7.288369565335552"><ele>443.66666666666663</ele><time>2026-04-26T13:28:47Z</time></trkpt><trkpt lat="44.81142300034825" lon="7.288487269098475"><ele>443.8333333333333</ele><time>2026-04-26T13:28:48Z</time></trkpt><trkpt lat="44.8114089447222" lon="7.288607262823451"><ele>444.0</ele><time>2026-04-26T13:28:49Z</time></trkpt><trkpt lat="44.81140764236326" lon="7.288721062026692"><ele>444.0</ele><time>2026-04-26T13:28:50Z</time></trkpt><trkpt lat="44.81143424615602" lon="7.288830075538741"><ele>444.0</ele><time>2026-04-26T13:28:51Z</time></trkpt><trkpt lat="44.81147556921036" lon="7.288927230755338"><ele>444.0</ele><time>2026-04-26T13:28:52Z</time></trkpt><trkpt lat="44.81152369201781" lon="7.2890145926474"><ele>444.0</ele><time>2026-04-26T13:28:53Z</time></trkpt><trkpt lat="44.81157537810086" lon="7.289093030101727"><ele>444.0</ele><time>2026-04-26T13:28:54.001Z</time></trkpt><trkpt lat="44.81162320946756" lon="7.289173691717655"><ele>444.0</ele><time>2026-04-26T13:28:55.001Z</time></trkpt><trkpt lat="44.81166825504497" lon="7.289251532701032"><ele>444.57142857142856</ele><time>2026-04-26T13:28:56.001Z</time></trkpt><trkpt lat="44.81171537195887" lon="7.2893269408822245"><ele>445.14285714285717</ele><time>2026-04-26T13:28:57.001Z</time></trkpt><trkpt lat="44.811762924645805" lon="7.2894014766483135"><ele>445.7142857142857</ele><time>2026-04-26T13:28:58.001Z</time></trkpt><trkpt lat="44.81181392049829" lon="7.289473338724811"><ele>446.2857142857143</ele><time>2026-04-26T13:28:59.001Z</time></trkpt><trkpt lat="44.81186852030319" lon="7.289534920378017"><ele>446.8571428571429</ele><time>2026-04-26T13:29:00.001Z</time></trkpt><trkpt lat="44.81192417697002" lon="7.289589108663555"><ele>447.42857142857144</ele><time>2026-04-26T13:29:01.001Z</time></trkpt><trkpt lat="44.81198573082505" lon="7.289631325520224"><ele>448.0</ele><time>2026-04-26T13:29:02.001Z</time></trkpt><trkpt lat="44.81204775819829" lon="7.289663335290218"><ele>448.0</ele><time>2026-04-26T13:29:03.001Z</time></trkpt><trkpt lat="44.81210720858041" lon="7.289696488351942"><ele>447.99999999999994</ele><time>2026-04-26T13:29:04.001Z</time></trkpt><trkpt lat="44.81222382498189" lon="7.289756162801769"><ele>447.99999999999994</ele><time>2026-04-26T13:29:06.001Z</time></trkpt><trkpt lat="44.812341415727126" lon="7.289804795200277"><ele>448.0</ele><time>2026-04-26T13:29:08.001Z</time></trkpt><trkpt lat="44.81244784455855" lon="7.2898664417751045"><ele>448.0</ele><time>2026-04-26T13:29:10.001Z</time></trkpt><trkpt lat="44.81254775343306" lon="7.289934192584066"><ele>446.1666666666667</ele><time>2026-04-26T13:29:12.001Z</time></trkpt><trkpt lat="44.81264747188454" lon="7.289951152834469"><ele>444.33333333333337</ele><time>2026-04-26T13:29:14.001Z</time></trkpt><trkpt lat="44.812742389742944" lon="7.2899473170497915"><ele>442.5</ele><time>2026-04-26T13:29:16.001Z</time></trkpt><trkpt lat="44.81282733128036" lon="7.28995482468913"><ele>440.66666666666663</ele><time>2026-04-26T13:29:18.001Z</time></trkpt><trkpt lat="44.812906450467956" lon="7.289953348402565"><ele>438.8333333333333</ele><time>2026-04-26T13:29:20.001Z</time></trkpt><trkpt lat="44.81298982470925" lon="7.289946898827053"><ele>437.0</ele><time>2026-04-26T13:29:21.999Z</time></trkpt><trkpt lat="44.813068354479086" lon="7.28991992190004"><ele>437.0</ele><time>2026-04-26T13:29:23.999Z</time></trkpt><trkpt lat="44.813155786318845" lon="7.2899039347461345"><ele>437.00000000000006</ele><time>2026-04-26T13:29:25.999Z</time></trkpt><trkpt lat="44.81323699129149" lon="7.28988254436248"><ele>437.00000000000006</ele><time>2026-04-26T13:29:27.999Z</time></trkpt><trkpt lat="44.81332464243928" lon="7.289827768730416"><ele>437.0</ele><time>2026-04-26T13:29:29.999Z</time></trkpt><trkpt lat="44.81342369479586" lon="7.289801737431074"><ele>437.0</ele><time>2026-04-26T13:29:31.999Z</time></trkpt><trkpt lat="44.81352066130866" lon="7.2898546039818"><ele>437.40000000000003</ele><time>2026-04-26T13:29:33.999Z</time></trkpt><trkpt lat="44.81361673685429" lon="7.289927905335682"><ele>437.80000000000007</ele><time>2026-04-26T13:29:35.999Z</time></trkpt><trkpt lat="44.813708193522444" lon="7.290002728446886"><ele>438.2</ele><time>2026-04-26T13:29:37.999Z</time></trkpt><trkpt lat="44.81380275874416" lon="7.290052970613369"><ele>438.6</ele><time>2026-04-26T13:29:39.999Z</time></trkpt><trkpt lat="44.813890101141006" lon="7.290123874109618"><ele>439.0</ele><time>2026-04-26T13:29:41.999Z</time></trkpt><trkpt lat="44.81395951489125" lon="7.29015611103283"><ele>439.00000000000006</ele><time>2026-04-26T13:29:42.999Z</time></trkpt><trkpt lat="44.81402211130411" lon="7.290197289041607"><ele>439.0</ele><time>2026-04-26T13:29:43.999Z</time></trkpt><trkpt lat="44.81409280429989" lon="7.290235397477543"><ele>439.0</ele><time>2026-04-26T13:29:44.999Z</time></trkpt><trkpt lat="44.814163425996774" lon="7.290272771092364"><ele>439.0</ele><time>2026-04-26T13:29:45.999Z</time></trkpt><trkpt lat="44.81423386576882" lon="7.290310737896718"><ele>439.00000000000006</ele><time>2026-04-26T13:29:46.999Z</time></trkpt><trkpt lat="44.81430589512564" lon="7.290351439847936"><ele>439.0</ele><time>2026-04-26T13:29:47.999Z</time></trkpt><trkpt lat="44.81437792298121" lon="7.290391117386707"><ele>439.83333333333337</ele><time>2026-04-26T13:29:48.999Z</time></trkpt><trkpt lat="44.81445069376435" lon="7.290429213587592"><ele>440.6666666666667</ele><time>2026-04-26T13:29:49.999Z</time></trkpt><trkpt lat="44.8145225476117" lon="7.290470657856181"><ele>441.5</ele><time>2026-04-26T13:29:50.999Z</time></trkpt><trkpt lat="44.81459485606713" lon="7.290509948056101"><ele>442.33333333333337</ele><time>2026-04-26T13:29:51.999Z</time></trkpt><trkpt lat="44.814670117932764" lon="7.29054830692386"><ele>443.1666666666667</ele><time>2026-04-26T13:29:52.999Z</time></trkpt><trkpt lat="44.81474707576761" lon="7.290584940096796"><ele>444.0</ele><time>2026-04-26T13:29:53.999Z</time></trkpt><trkpt lat="44.81482753869868" lon="7.290616869971314"><ele>442.3333333333333</ele><time>2026-04-26T13:29:54.999Z</time></trkpt><trkpt lat="44.814908540163614" lon="7.290646448019235"><ele>440.66666666666663</ele><time>2026-04-26T13:29:55.999Z</time></trkpt><trkpt lat="44.8149884246405" lon="7.290674719163947"><ele>439.0</ele><time>2026-04-26T13:29:56.999Z</time></trkpt><trkpt lat="44.8150691697917" lon="7.290699499455999"><ele>437.3333333333333</ele><time>2026-04-26T13:29:58Z</time></trkpt><trkpt lat="44.81514998735553" lon="7.290722825678701"><ele>435.66666666666663</ele><time>2026-04-26T13:29:59Z</time></trkpt><trkpt lat="44.81522865613548" lon="7.290745439208284"><ele>434.0</ele><time>2026-04-26T13:30:00Z</time></trkpt><trkpt lat="44.815307395537644" lon="7.29076869067656"><ele>433.99999999999994</ele><time>2026-04-26T13:30:01Z</time></trkpt><trkpt lat="44.81538485755852" lon="7.290791992369735"><ele>434.0</ele><time>2026-04-26T13:30:02Z</time></trkpt><trkpt lat="44.815460695042084" lon="7.290820431275269"><ele>434.0</ele><time>2026-04-26T13:30:03Z</time></trkpt><trkpt lat="44.8155350165761" lon="7.290856720835545"><ele>434.0</ele><time>2026-04-26T13:30:04Z</time></trkpt><trkpt lat="44.81560560996897" lon="7.290904339576147"><ele>433.99999999999994</ele><time>2026-04-26T13:30:05Z</time></trkpt><trkpt lat="44.81567215039248" lon="7.290962039788142"><ele>434.0</ele><time>2026-04-26T13:30:06Z</time></trkpt><trkpt lat="44.81573534333106" lon="7.291027067214967"><ele>433.99999999999994</ele><time>2026-04-26T13:30:07Z</time></trkpt><trkpt lat="44.81579407716416" lon="7.291101003960115"><ele>434.0</ele><time>2026-04-26T13:30:08Z</time></trkpt><trkpt lat="44.81585682418031" lon="7.29117144864685"><ele>434.0</ele><time>2026-04-26T13:30:09Z</time></trkpt><trkpt lat="44.81592279148863" lon="7.291239176720951"><ele>434.0</ele><time>2026-04-26T13:30:10Z</time></trkpt><trkpt lat="44.81599404082311" lon="7.2912984088675055"><ele>433.99999999999994</ele><time>2026-04-26T13:30:11Z</time></trkpt><trkpt lat="44.81606479028945" lon="7.291367938325671"><ele>434.0</ele><time>2026-04-26T13:30:12Z</time></trkpt><trkpt lat="44.816134993205154" lon="7.291435556958402"><ele>432.66666666666663</ele><time>2026-04-26T13:30:13Z</time></trkpt><trkpt lat="44.816200862096615" lon="7.291505104292311"><ele>431.3333333333333</ele><time>2026-04-26T13:30:14Z</time></trkpt><trkpt lat="44.81625386598061" lon="7.2915760783307935"><ele>430.0</ele><time>2026-04-26T13:30:15Z</time></trkpt><trkpt lat="44.816301724440045" lon="7.29163929173454"><ele>428.66666666666663</ele><time>2026-04-26T13:30:16Z</time></trkpt><trkpt lat="44.81638740316542" lon="7.291753322976508"><ele>427.3333333333333</ele><time>2026-04-26T13:30:18Z</time></trkpt><trkpt lat="44.81643507971433" lon="7.291893912023653"><ele>426.0</ele><time>2026-04-26T13:30:20Z</time></trkpt><trkpt lat="44.81639947157637" lon="7.292026410348198"><ele>426.0</ele><time>2026-04-26T13:30:22Z</time></trkpt><trkpt lat="44.81632421582675" lon="7.292113901224796"><ele>426.0</ele><time>2026-04-26T13:30:24Z</time></trkpt><trkpt lat="44.81624761505153" lon="7.2922261639131785"><ele>426.0</ele><time>2026-04-26T13:30:26Z</time></trkpt><trkpt lat="44.816163087008015" lon="7.292342286287533"><ele>426.0</ele><time>2026-04-26T13:30:28Z</time></trkpt><trkpt lat="44.81606885057204" lon="7.292443257062744"><ele>426.0</ele><time>2026-04-26T13:30:30Z</time></trkpt><trkpt lat="44.81604978081552" lon="7.29260038436678"><ele>424.6666666666667</ele><time>2026-04-26T13:30:32Z</time></trkpt><trkpt lat="44.81612828794206" lon="7.292737276063309"><ele>423.33333333333337</ele><time>2026-04-26T13:30:34Z</time></trkpt><trkpt lat="44.816173556381564" lon="7.292806213438152"><ele>422.0</ele><time>2026-04-26T13:30:35Z</time></trkpt><trkpt lat="44.816222680509" lon="7.292876210772768"><ele>420.6666666666667</ele><time>2026-04-26T13:30:36Z</time></trkpt><trkpt lat="44.81627442020983" lon="7.292953806323135"><ele>419.33333333333337</ele><time>2026-04-26T13:30:37Z</time></trkpt><trkpt lat="44.81633163333381" lon="7.2930353695216"><ele>418.0</ele><time>2026-04-26T13:30:38Z</time></trkpt><trkpt lat="44.816393884770676" lon="7.293123023367627"><ele>417.2</ele><time>2026-04-26T13:30:39Z</time></trkpt><trkpt lat="44.81645807941603" lon="7.293215115264837"><ele>416.4</ele><time>2026-04-26T13:30:40Z</time></trkpt><trkpt lat="44.8165298797291" lon="7.293305990957422"><ele>415.59999999999997</ele><time>2026-04-26T13:30:41Z</time></trkpt><trkpt lat="44.816605404481265" lon="7.293399520937344"><ele>414.79999999999995</ele><time>2026-04-26T13:30:42Z</time></trkpt><trkpt lat="44.81668123787853" lon="7.293497607435831"><ele>414.0</ele><time>2026-04-26T13:30:43Z</time></trkpt><trkpt lat="44.816767685952016" lon="7.2935928414276585"><ele>414.6</ele><time>2026-04-26T13:30:44Z</time></trkpt><trkpt lat="44.81682967652613" lon="7.293694511322568"><ele>415.2</ele><time>2026-04-26T13:30:45Z</time></trkpt><trkpt lat="44.816904082269154" lon="7.293795376063569"><ele>415.8</ele><time>2026-04-26T13:30:46Z</time></trkpt><trkpt lat="44.81697749961385" lon="7.293899552989859"><ele>416.40000000000003</ele><time>2026-04-26T13:30:47Z</time></trkpt><trkpt lat="44.81704627284996" lon="7.294006121426487"><ele>417.0</ele><time>2026-04-26T13:30:48Z</time></trkpt><trkpt lat="44.817111094460664" lon="7.294113233646825"><ele>415.6666666666667</ele><time>2026-04-26T13:30:49Z</time></trkpt><trkpt lat="44.81717121493643" lon="7.294222593442682"><ele>414.33333333333337</ele><time>2026-04-26T13:30:50Z</time></trkpt><trkpt lat="44.81723040037586" lon="7.294329308989123"><ele>413.0</ele><time>2026-04-26T13:30:51Z</time></trkpt><trkpt lat="44.81727821738291" lon="7.294433922277075"><ele>411.6666666666667</ele><time>2026-04-26T13:30:52.001Z</time></trkpt><trkpt lat="44.817312641205135" lon="7.2945302501679485"><ele>410.33333333333337</ele><time>2026-04-26T13:30:53.001Z</time></trkpt><trkpt lat="44.817337031089366" lon="7.294625495978969"><ele>409.0</ele><time>2026-04-26T13:30:54.001Z</time></trkpt><trkpt lat="44.8173615006659" lon="7.294716454324049"><ele>408.2</ele><time>2026-04-26T13:30:55.001Z</time></trkpt><trkpt lat="44.81740238511952" lon="7.294867580379241"><ele>407.4</ele><time>2026-04-26T13:30:57.001Z</time></trkpt><trkpt lat="44.817422823187115" lon="7.294977714379558"><ele>406.6</ele><time>2026-04-26T13:31:00.001Z</time></trkpt><trkpt lat="44.817484198673554" lon="7.2950424326184375"><ele>405.8</ele><time>2026-04-26T13:31:04.001Z</time></trkpt><trkpt lat="44.817564694389525" lon="7.294967334806918"><ele>405.0</ele><time>2026-04-26T13:31:06.001Z</time></trkpt><trkpt lat="44.8176394736446" lon="7.294917745325521"><ele>405.0</ele><time>2026-04-26T13:31:08.001Z</time></trkpt><trkpt lat="44.81773370632435" lon="7.294887224444047"><ele>405.0</ele><time>2026-04-26T13:31:10.001Z</time></trkpt><trkpt lat="44.817829712299336" lon="7.2948434976572125"><ele>405.0</ele><time>2026-04-26T13:31:12.001Z</time></trkpt><trkpt lat="44.81793084819245" lon="7.294804773408821"><ele>405.0</ele><time>2026-04-26T13:31:14.001Z</time></trkpt><trkpt lat="44.81803335142929" lon="7.294767742546525"><ele>405.0</ele><time>2026-04-26T13:31:16.001Z</time></trkpt><trkpt lat="44.818134846690505" lon="7.29472473425986"><ele>406.0</ele><time>2026-04-26T13:31:18.001Z</time></trkpt><trkpt lat="44.81824058509036" lon="7.294685062551514"><ele>407.0</ele><time>2026-04-26T13:31:20.001Z</time></trkpt><trkpt lat="44.81834512543758" lon="7.294648061877128"><ele>408.0</ele><time>2026-04-26T13:31:22.001Z</time></trkpt><trkpt lat="44.81845145075095" lon="7.294614746562213"><ele>409.0</ele><time>2026-04-26T13:31:24.001Z</time></trkpt><trkpt lat="44.818554455312295" lon="7.294592266061877"><ele>410.0</ele><time>2026-04-26T13:31:26.001Z</time></trkpt><trkpt lat="44.81865978782513" lon="7.294580188079221"><ele>410.2</ele><time>2026-04-26T13:31:27.999Z</time></trkpt><trkpt lat="44.81876664148711" lon="7.294551339256685"><ele>410.4</ele><time>2026-04-26T13:31:29.999Z</time></trkpt><trkpt lat="44.818873242000365" lon="7.294537050654242"><ele>410.6</ele><time>2026-04-26T13:31:31.999Z</time></trkpt><trkpt lat="44.818987769485005" lon="7.294541438262254"><ele>410.8</ele><time>2026-04-26T13:31:33.999Z</time></trkpt><trkpt lat="44.81910627349168" lon="7.294537897207041"><ele>411.0</ele><time>2026-04-26T13:31:35.999Z</time></trkpt><trkpt lat="44.81922838711819" lon="7.294554146607831"><ele>411.0</ele><time>2026-04-26T13:31:37.999Z</time></trkpt><trkpt lat="44.81929074803913" lon="7.294574886566339"><ele>411.0</ele><time>2026-04-26T13:31:38.999Z</time></trkpt><trkpt lat="44.8193531840608" lon="7.2946039352664584"><ele>411.0</ele><time>2026-04-26T13:31:39.999Z</time></trkpt><trkpt lat="44.819413002242" lon="7.294644690801372"><ele>411.0</ele><time>2026-04-26T13:31:40.999Z</time></trkpt><trkpt lat="44.81947167359263" lon="7.2946958329340355"><ele>411.0</ele><time>2026-04-26T13:31:41.999Z</time></trkpt><trkpt lat="44.819529884676825" lon="7.294746845532756"><ele>411.0</ele><time>2026-04-26T13:31:42.999Z</time></trkpt><trkpt lat="44.81958719188766" lon="7.2948020472313555"><ele>411.0</ele><time>2026-04-26T13:31:43.999Z</time></trkpt><trkpt lat="44.81964431790098" lon="7.294860268784457"><ele>410.6666666666667</ele><time>2026-04-26T13:31:44.999Z</time></trkpt><trkpt lat="44.81969850384232" lon="7.294924536977173"><ele>410.33333333333337</ele><time>2026-04-26T13:31:45.999Z</time></trkpt><trkpt lat="44.81974880084725" lon="7.294998130348427"><ele>410.0</ele><time>2026-04-26T13:31:46.999Z</time></trkpt><trkpt lat="44.81979751494701" lon="7.2950752112098725"><ele>409.6666666666667</ele><time>2026-04-26T13:31:47.999Z</time></trkpt><trkpt lat="44.81984658692465" lon="7.295155740985502"><ele>409.33333333333337</ele><time>2026-04-26T13:31:48.999Z</time></trkpt><trkpt lat="44.81989668582574" lon="7.295240816514673"><ele>409.0</ele><time>2026-04-26T13:31:49.999Z</time></trkpt><trkpt lat="44.81994788532395" lon="7.295330588945618"><ele>409.00000000000006</ele><time>2026-04-26T13:31:50.999Z</time></trkpt><trkpt lat="44.820001384133434" lon="7.295422334523036"><ele>409.0</ele><time>2026-04-26T13:31:51.999Z</time></trkpt><trkpt lat="44.82005585292608" lon="7.2955167331633195"><ele>409.0</ele><time>2026-04-26T13:31:52.999Z</time></trkpt><trkpt lat="44.82010860848786" lon="7.29561438723016"><ele>409.0</ele><time>2026-04-26T13:31:53.999Z</time></trkpt><trkpt lat="44.820156357053115" lon="7.295715945011007"><ele>409.00000000000006</ele><time>2026-04-26T13:31:54.999Z</time></trkpt><trkpt lat="44.82019942874232" lon="7.295824335810234"><ele>409.0</ele><time>2026-04-26T13:31:55.999Z</time></trkpt><trkpt lat="44.82023925303004" lon="7.295935363375186"><ele>408.33333333333337</ele><time>2026-04-26T13:31:56.999Z</time></trkpt><trkpt lat="44.82029246267869" lon="7.296028790866404"><ele>407.6666666666667</ele><time>2026-04-26T13:31:57.999Z</time></trkpt><trkpt lat="44.82034306835571" lon="7.296116169719142"><ele>407.0</ele><time>2026-04-26T13:31:58.999Z</time></trkpt><trkpt lat="44.820395008183176" lon="7.296194916175574"><ele>406.33333333333337</ele><time>2026-04-26T13:31:59.999Z</time></trkpt><trkpt lat="44.82044042022171" lon="7.296260364522083"><ele>405.6666666666667</ele><time>2026-04-26T13:32:00.999Z</time></trkpt><trkpt lat="44.8205211485494" lon="7.296343353280488"><ele>405.0</ele><time>2026-04-26T13:32:03Z</time></trkpt><trkpt lat="44.820599453122725" lon="7.296410537893114"><ele>404.0</ele><time>2026-04-26T13:32:05Z</time></trkpt><trkpt lat="44.820673139303125" lon="7.296507977849256"><ele>403.0</ele><time>2026-04-26T13:32:07Z</time></trkpt><trkpt lat="44.82073963908892" lon="7.296608919444718"><ele>402.0</ele><time>2026-04-26T13:32:09Z</time></trkpt><trkpt lat="44.82080174817163" lon="7.296709620550791"><ele>401.0</ele><time>2026-04-26T13:32:11Z</time></trkpt><trkpt lat="44.82086578663963" lon="7.296807961073541"><ele>400.0</ele><time>2026-04-26T13:32:13Z</time></trkpt><trkpt lat="44.82094577624973" lon="7.296920937188576"><ele>399.6</ele><time>2026-04-26T13:32:15Z</time></trkpt><trkpt lat="44.82103507532734" lon="7.2970343162892695"><ele>399.2</ele><time>2026-04-26T13:32:17Z</time></trkpt><trkpt lat="44.821123102616006" lon="7.297141147224874"><ele>398.79999999999995</ele><time>2026-04-26T13:32:19Z</time></trkpt><trkpt lat="44.82116882461487" lon="7.297205697259961"><ele>398.4</ele><time>2026-04-26T13:32:20Z</time></trkpt><trkpt lat="44.82123395885637" lon="7.2973314362285855"><ele>398.0</ele><time>2026-04-26T13:32:22Z</time></trkpt><trkpt lat="44.82127925423099" lon="7.297456840831841"><ele>398.0</ele><time>2026-04-26T13:32:24Z</time></trkpt><trkpt lat="44.82133337367633" lon="7.297570812677134"><ele>398.0</ele><time>2026-04-26T13:32:26Z</time></trkpt><trkpt lat="44.82138606393106" lon="7.297678786063343"><ele>398.0</ele><time>2026-04-26T13:32:28Z</time></trkpt><trkpt lat="44.82143460365935" lon="7.297779249878199"><ele>398.0</ele><time>2026-04-26T13:32:30Z</time></trkpt><trkpt lat="44.82148424290559" lon="7.297891314444433"><ele>398.0</ele><time>2026-04-26T13:32:32Z</time></trkpt><trkpt lat="44.821530970814784" lon="7.297987273264132"><ele>397.79999999999995</ele><time>2026-04-26T13:32:34Z</time></trkpt><trkpt lat="44.82158261259788" lon="7.298086391787784"><ele>397.6</ele><time>2026-04-26T13:32:36Z</time></trkpt><trkpt lat="44.82164558002996" lon="7.298181027253475"><ele>397.4</ele><time>2026-04-26T13:32:38Z</time></trkpt><trkpt lat="44.82171275678818" lon="7.2982714595388565"><ele>397.20000000000005</ele><time>2026-04-26T13:32:40Z</time></trkpt><trkpt lat="44.82179951661873" lon="7.298376740420471"><ele>397.0</ele><time>2026-04-26T13:32:42Z</time></trkpt><trkpt lat="44.82188595761527" lon="7.298476044021529"><ele>397.5</ele><time>2026-04-26T13:32:44Z</time></trkpt><trkpt lat="44.821967239362145" lon="7.298601109555596"><ele>398.0</ele><time>2026-04-26T13:32:46Z</time></trkpt><trkpt lat="44.82203635357879" lon="7.298741343184649"><ele>398.5</ele><time>2026-04-26T13:32:48Z</time></trkpt><trkpt lat="44.82210780889679" lon="7.298883308142023"><ele>399.0</ele><time>2026-04-26T13:32:50Z</time></trkpt><trkpt lat="44.8221758340465" lon="7.2990290658846515"><ele>398.14285714285717</ele><time>2026-04-26T13:32:52.001Z</time></trkpt><trkpt lat="44.82221702096308" lon="7.2991018127740865"><ele>397.2857142857143</ele><time>2026-04-26T13:32:53.001Z</time></trkpt><trkpt lat="44.8222574842816" lon="7.299176486793815"><ele>396.42857142857144</ele><time>2026-04-26T13:32:54.001Z</time></trkpt><trkpt lat="44.82230252583482" lon="7.29924095824113"><ele>395.57142857142856</ele><time>2026-04-26T13:32:55.001Z</time></trkpt><trkpt lat="44.82235202211605" lon="7.299306951473557"><ele>394.7142857142857</ele><time>2026-04-26T13:32:56.001Z</time></trkpt><trkpt lat="44.82240289303667" lon="7.299370514276284"><ele>393.8571428571429</ele><time>2026-04-26T13:32:57.001Z</time></trkpt><trkpt lat="44.82245466068213" lon="7.299431639321876"><ele>393.0</ele><time>2026-04-26T13:32:58.001Z</time></trkpt><trkpt lat="44.822509235443405" lon="7.299490448184572"><ele>393.00000000000006</ele><time>2026-04-26T13:32:59.001Z</time></trkpt><trkpt lat="44.82256726876088" lon="7.299541609404555"><ele>393.0</ele><time>2026-04-26T13:33:00.001Z</time></trkpt><trkpt lat="44.82262644188499" lon="7.299589031706914"><ele>393.0</ele><time>2026-04-26T13:33:01.001Z</time></trkpt><trkpt lat="44.82268427083154" lon="7.299637004668784"><ele>393.0</ele><time>2026-04-26T13:33:02.001Z</time></trkpt><trkpt lat="44.82273594334248" lon="7.299689804892104"><ele>393.0</ele><time>2026-04-26T13:33:03.001Z</time></trkpt><trkpt lat="44.82278706160898" lon="7.299744063630125"><ele>393.00000000000006</ele><time>2026-04-26T13:33:04.001Z</time></trkpt><trkpt lat="44.82283920184473" lon="7.29979434023613"><ele>393.0</ele><time>2026-04-26T13:33:05.001Z</time></trkpt><trkpt lat="44.82289278902795" lon="7.299843737413615"><ele>392.8333333333333</ele><time>2026-04-26T13:33:06.001Z</time></trkpt><trkpt lat="44.82294761522872" lon="7.2998884428096344"><ele>392.66666666666663</ele><time>2026-04-26T13:33:07.001Z</time></trkpt><trkpt lat="44.82306198138914" lon="7.299941794131546"><ele>392.5</ele><time>2026-04-26T13:33:09.001Z</time></trkpt><trkpt lat="44.82316866052573" lon="7.299974823708466"><ele>392.3333333333333</ele><time>2026-04-26T13:33:11.001Z</time></trkpt><trkpt lat="44.82325016387768" lon="7.300001540788968"><ele>392.16666666666663</ele><time>2026-04-26T13:33:13.001Z</time></trkpt><trkpt lat="44.823313154837564" lon="7.300040174573261"><ele>392.0</ele><time>2026-04-26T13:33:15.001Z</time></trkpt><trkpt lat="44.8233726597736" lon="7.300120462730314"><ele>392.0</ele><time>2026-04-26T13:33:18.001Z</time></trkpt><trkpt lat="44.82345235444924" lon="7.300167283705625"><ele>392.0</ele><time>2026-04-26T13:33:20.001Z</time></trkpt><trkpt lat="44.82352898763932" lon="7.300240539918723"><ele>392.0</ele><time>2026-04-26T13:33:22.001Z</time></trkpt><trkpt lat="44.823610548040996" lon="7.300322331194222"><ele>392.0</ele><time>2026-04-26T13:33:24.001Z</time></trkpt><trkpt lat="44.82367640429859" lon="7.300407624769836"><ele>392.0</ele><time>2026-04-26T13:33:26.001Z</time></trkpt><trkpt lat="44.823739146404385" lon="7.300500744173183"><ele>392.16666666666663</ele><time>2026-04-26T13:33:28.001Z</time></trkpt><trkpt lat="44.823797509193945" lon="7.300589185067387"><ele>392.3333333333333</ele><time>2026-04-26T13:33:30.001Z</time></trkpt><trkpt lat="44.823846753657534" lon="7.300681144032283"><ele>392.5</ele><time>2026-04-26T13:33:32.001Z</time></trkpt><trkpt lat="44.823891174407876" lon="7.300764665498351"><ele>392.66666666666663</ele><time>2026-04-26T13:33:33.999Z</time></trkpt><trkpt lat="44.8239367547173" lon="7.300829601072012"><ele>392.8333333333333</ele><time>2026-04-26T13:33:35.999Z</time></trkpt><trkpt lat="44.82395578328273" lon="7.300935502018972"><ele>393.0</ele><time>2026-04-26T13:33:39.999Z</time></trkpt><trkpt lat="44.82401043551907" lon="7.3010089032666725"><ele>393.0</ele><time>2026-04-26T13:33:41.999Z</time></trkpt><trkpt lat="44.824080612834" lon="7.301079859316045"><ele>393.0</ele><time>2026-04-26T13:33:43.999Z</time></trkpt><trkpt lat="44.82416473391251" lon="7.301165722090317"><ele>393.0</ele><time>2026-04-26T13:33:45.999Z</time></trkpt><trkpt lat="44.8242465216019" lon="7.301263935963909"><ele>393.0</ele><time>2026-04-26T13:33:47.999Z</time></trkpt><trkpt lat="44.824332252640865" lon="7.301360365540752"><ele>393.0</ele><time>2026-04-26T13:33:49.999Z</time></trkpt><trkpt lat="44.824420107765235" lon="7.301440372283612"><ele>392.8333333333333</ele><time>2026-04-26T13:33:51.999Z</time></trkpt><trkpt lat="44.824486003498045" lon="7.30148194951473"><ele>392.66666666666663</ele><time>2026-04-26T13:33:53.999Z</time></trkpt><trkpt lat="44.82454707390628" lon="7.30138036286778"><ele>392.5</ele><time>2026-04-26T13:33:55.999Z</time></trkpt><trkpt lat="44.82458760208776" lon="7.301266385752016"><ele>392.3333333333333</ele><time>2026-04-26T13:33:57.999Z</time></trkpt><trkpt lat="44.824672661515116" lon="7.301237190934149"><ele>392.16666666666663</ele><time>2026-04-26T13:33:59.999Z</time></trkpt><trkpt lat="44.82475203653961" lon="7.301237921807753"><ele>392.0</ele><time>2026-04-26T13:34:01.999Z</time></trkpt><trkpt lat="44.82482915515426" lon="7.301231456596987"><ele>392.16666666666663</ele><time>2026-04-26T13:34:04Z</time></trkpt><trkpt lat="44.82489918482171" lon="7.301214290380559"><ele>392.3333333333333</ele><time>2026-04-26T13:34:06Z</time></trkpt><trkpt lat="44.82496205742956" lon="7.301176750115014"><ele>392.5</ele><time>2026-04-26T13:34:08Z</time></trkpt><trkpt lat="44.82504627362763" lon="7.30115963952833"><ele>392.66666666666663</ele><time>2026-04-26T13:34:10Z</time></trkpt><trkpt lat="44.825148619625246" lon="7.3011313603148675"><ele>392.8333333333333</ele><time>2026-04-26T13:34:12Z</time></trkpt><trkpt lat="44.82526329124401" lon="7.301089926242233"><ele>393.0</ele><time>2026-04-26T13:34:14Z</time></trkpt><trkpt lat="44.825349777285" lon="7.301073323723982"><ele>393.0</ele><time>2026-04-26T13:34:16Z</time></trkpt><trkpt lat="44.82543736470472" lon="7.301047068054008"><ele>393.0</ele><time>2026-04-26T13:34:18Z</time></trkpt><trkpt lat="44.825535385769626" lon="7.301004262738817"><ele>393.0</ele><time>2026-04-26T13:34:20Z</time></trkpt><trkpt lat="44.825636255113764" lon="7.30098039758752"><ele>393.0</ele><time>2026-04-26T13:34:22Z</time></trkpt><trkpt lat="44.82573423540643" lon="7.300942837094601"><ele>393.0</ele><time>2026-04-26T13:34:24Z</time></trkpt><trkpt lat="44.82580743406991" lon="7.300982041168133"><ele>393.0</ele><time>2026-04-26T13:34:28Z</time></trkpt><trkpt lat="44.82581010575091" lon="7.30110245947001"><ele>393.0</ele><time>2026-04-26T13:34:30Z</time></trkpt><trkpt lat="44.825822596374465" lon="7.301216046668815"><ele>393.0</ele><time>2026-04-26T13:34:32Z</time></trkpt><trkpt lat="44.82591151351772" lon="7.3013050992277195"><ele>393.0</ele><time>2026-04-26T13:34:34Z</time></trkpt><trkpt lat="44.82596262092759" lon="7.301402113118836"><ele>393.0</ele><time>2026-04-26T13:34:36Z</time></trkpt><trkpt lat="44.82602336298734" lon="7.301484771565568"><ele>393.0</ele><time>2026-04-26T13:34:38Z</time></trkpt><trkpt lat="44.82609026277226" lon="7.3015887793796415"><ele>393.2</ele><time>2026-04-26T13:34:40Z</time></trkpt><trkpt lat="44.826163423141345" lon="7.301718441384913"><ele>393.4</ele><time>2026-04-26T13:34:42Z</time></trkpt><trkpt lat="44.82622202530267" lon="7.301829846940285"><ele>393.59999999999997</ele><time>2026-04-26T13:34:44Z</time></trkpt><trkpt lat="44.82627493200394" lon="7.301921356204044"><ele>393.79999999999995</ele><time>2026-04-26T13:34:47Z</time></trkpt><trkpt lat="44.82626212669867" lon="7.302021723377697"><ele>394.0</ele><time>2026-04-26T13:34:50.001Z</time></trkpt><trkpt lat="44.82618858281414" lon="7.302096113759265"><ele>394.0</ele><time>2026-04-26T13:34:52.001Z</time></trkpt><trkpt lat="44.826125066513576" lon="7.302185374537261"><ele>394.0</ele><time>2026-04-26T13:34:54.001Z</time></trkpt><trkpt lat="44.82605741254861" lon="7.30227757578815"><ele>394.0</ele><time>2026-04-26T13:34:56.001Z</time></trkpt><trkpt lat="44.8260389844863" lon="7.30240893049871"><ele>394.0</ele><time>2026-04-26T13:34:58.001Z</time></trkpt><trkpt lat="44.82602414081226" lon="7.302551196909193"><ele>394.0</ele><time>2026-04-26T13:35:00.001Z</time></trkpt><trkpt lat="44.82601157095744" lon="7.302652962440033"><ele>398.0</ele><time>2026-04-26T13:35:02.001Z</time></trkpt><trkpt lat="44.826071854782164" lon="7.302679367927172"><ele>398.0</ele><time>2026-04-26T13:35:06.001Z</time></trkpt></trkseg></trk></gpx>